Terminal Aerodrome Forecast
Issued by NWS

Current Version | Previous Version | Text Only | Print | Product List | Glossary On
Versions: 1 2 3 4 5 6 7 8 9 10 11 12
847
FTUS46 KPDT 301736
TAFPSC
TAF
KPSC 301736Z 3018/0118 20007KT P6SM SCT150 SCT250
     FM302000 28009KT P6SM SCT120 SCT250
     FM010200 22010KT P6SM SCT090 BKN100=

USA.gov is the U.S. government's official web portal to all federal, state and local government web resources and services.